sensor_id;sensor_type;location;lat;lon;timestamp;pressure;altitude;pressure_sealevel;temperature;humidity
19286;BME280;9776;50.798;6.430;2023-09-12T00:00:11;99940.16;;;24.55;55.63
19286;BME280;9776;50.798;6.430;2023-09-12T00:02:40;99941.41;;;24.47;55.78
19286;BME280;9776;50.798;6.430;2023-09-12T00:05:07;99928.47;;;24.49;55.71
19286;BME280;9776;50.798;6.430;2023-09-12T00:07:34;99929.69;;;24.42;55.74
19286;BME280;9776;50.798;6.430;2023-09-12T00:10:01;99927.91;;;24.47;55.75
19286;BME280;9776;50.798;6.430;2023-09-12T00:12:28;99921.97;;;24.50;55.49
19286;BME280;9776;50.798;6.430;2023-09-12T00:14:56;99923.41;;;24.53;55.48
19286;BME280;9776;50.798;6.430;2023-09-12T00:17:23;99933.31;;;24.47;55.35
19286;BME280;9776;50.798;6.430;2023-09-12T00:19:52;99921.81;;;24.35;55.72
19286;BME280;9776;50.798;6.430;2023-09-12T00:22:19;99915.75;;;24.28;55.87
19286;BME280;9776;50.798;6.430;2023-09-12T00:24:45;99909.53;;;24.27;55.95
19286;BME280;9776;50.798;6.430;2023-09-12T00:27:12;99904.47;;;24.31;55.80
19286;BME280;9776;50.798;6.430;2023-09-12T00:29:39;99902.34;;;24.33;55.87
19286;BME280;9776;50.798;6.430;2023-09-12T00:32:07;99901.53;;;24.33;55.80
19286;BME280;9776;50.798;6.430;2023-09-12T00:34:34;99900.06;;;24.25;56.01
19286;BME280;9776;50.798;6.430;2023-09-12T00:37:01;99909.47;;;24.22;55.96
19286;BME280;9776;50.798;6.430;2023-09-12T00:39:28;99912.84;;;24.13;56.19
19286;BME280;9776;50.798;6.430;2023-09-12T00:41:55;99918.81;;;24.15;56.12
19286;BME280;9776;50.798;6.430;2023-09-12T00:44:23;99920.94;;;24.13;55.91
19286;BME280;9776;50.798;6.430;2023-09-12T00:46:50;99918.50;;;24.11;56.10
19286;BME280;9776;50.798;6.430;2023-09-12T00:49:20;99908.25;;;24.13;55.93
19286;BME280;9776;50.798;6.430;2023-09-12T00:51:49;99902.53;;;24.10;56.00
19286;BME280;9776;50.798;6.430;2023-09-12T00:54:17;99912.28;;;24.11;55.80
19286;BME280;9776;50.798;6.430;2023-09-12T00:56:44;99900.66;;;24.10;55.61
19286;BME280;9776;50.798;6.430;2023-09-12T00:59:13;99907.94;;;24.10;55.60
19286;BME280;9776;50.798;6.430;2023-09-12T01:01:40;99896.31;;;24.09;55.61
19286;BME280;9776;50.798;6.430;2023-09-12T01:04:08;99897.66;;;24.07;55.29
19286;BME280;9776;50.798;6.430;2023-09-12T01:06:37;99897.31;;;24.03;55.46
19286;BME280;9776;50.798;6.430;2023-09-12T01:09:05;99891.09;;;24.03;55.40
19286;BME280;9776;50.798;6.430;2023-09-12T01:11:33;99895.94;;;24.01;55.47
19286;BME280;9776;50.798;6.430;2023-09-12T01:14:01;99893.72;;;23.98;55.48
19286;BME280;9776;50.798;6.430;2023-09-12T01:16:28;99895.53;;;23.92;55.58
19286;BME280;9776;50.798;6.430;2023-09-12T01:18:55;99888.72;;;23.90;55.53
19286;BME280;9776;50.798;6.430;2023-09-12T01:21:52;99880.25;;;23.81;55.75
19286;BME280;9776;50.798;6.430;2023-09-12T01:27:34;99887.44;;;23.76;55.90
19286;BME280;9776;50.798;6.430;2023-09-12T01:30:03;99885.91;;;23.80;55.74
19286;BME280;9776;50.798;6.430;2023-09-12T01:32:32;99889.34;;;23.75;56.02
19286;BME280;9776;50.798;6.430;2023-09-12T01:35:00;99892.91;;;23.64;56.21
19286;BME280;9776;50.798;6.430;2023-09-12T01:37:28;99897.19;;;23.60;56.43
19286;BME280;9776;50.798;6.430;2023-09-12T01:39:55;99891.94;;;23.53;56.42
19286;BME280;9776;50.798;6.430;2023-09-12T01:42:22;99897.81;;;23.50;56.69
19286;BME280;9776;50.798;6.430;2023-09-12T01:44:55;99900.44;;;23.45;56.99
19286;BME280;9776;50.798;6.430;2023-09-12T01:47:23;99898.44;;;23.41;57.09
19286;BME280;9776;50.798;6.430;2023-09-12T01:49:54;99885.56;;;23.43;56.79
19286;BME280;9776;50.798;6.430;2023-09-12T01:52:22;99891.78;;;23.43;56.92
19286;BME280;9776;50.798;6.430;2023-09-12T01:54:50;99887.53;;;23.47;56.85
19286;BME280;9776;50.798;6.430;2023-09-12T01:57:18;99888.34;;;23.48;56.98
19286;BME280;9776;50.798;6.430;2023-09-12T01:59:47;99884.13;;;23.52;56.78
19286;BME280;9776;50.798;6.430;2023-09-12T02:02:16;99879.03;;;23.55;56.80
19286;BME280;9776;50.798;6.430;2023-09-12T02:04:50;99877.41;;;23.54;56.76
19286;BME280;9776;50.798;6.430;2023-09-12T02:07:18;99875.69;;;23.48;56.75
19286;BME280;9776;50.798;6.430;2023-09-12T02:09:45;99873.97;;;23.42;56.97
19286;BME280;9776;50.798;6.430;2023-09-12T02:12:12;99872.22;;;23.36;57.13
19286;BME280;9776;50.798;6.430;2023-09-12T02:14:39;99872.34;;;23.41;57.10
19286;BME280;9776;50.798;6.430;2023-09-12T02:17:06;99872.34;;;23.41;57.03
19286;BME280;9776;50.798;6.430;2023-09-12T02:19:34;99871.41;;;23.36;57.17
19286;BME280;9776;50.798;6.430;2023-09-12T02:22:01;99869.19;;;23.33;57.27
19286;BME280;9776;50.798;6.430;2023-09-12T02:24:28;99865.44;;;23.34;57.17
19286;BME280;9776;50.798;6.430;2023-09-12T02:26:54;99871.06;;;23.32;57.38
19286;BME280;9776;50.798;6.430;2023-09-12T02:29:21;99872.63;;;23.28;57.34
19286;BME280;9776;50.798;6.430;2023-09-12T02:31:48;99868.84;;;23.29;57.53
19286;BME280;9776;50.798;6.430;2023-09-12T02:34:15;99881.75;;;23.27;57.43
19286;BME280;9776;50.798;6.430;2023-09-12T02:36:43;99884.94;;;23.24;57.67
19286;BME280;9776;50.798;6.430;2023-09-12T02:39:09;99886.00;;;23.23;57.65
19286;BME280;9776;50.798;6.430;2023-09-12T02:41:36;99889.75;;;23.22;57.59
19286;BME280;9776;50.798;6.430;2023-09-12T02:44:05;99891.41;;;23.23;58.07
19286;BME280;9776;50.798;6.430;2023-09-12T02:46:32;99880.84;;;23.22;57.74
19286;BME280;9776;50.798;6.430;2023-09-12T02:48:59;99888.09;;;23.21;57.81
19286;BME280;9776;50.798;6.430;2023-09-12T02:51:26;99875.25;;;23.23;57.73
19286;BME280;9776;50.798;6.430;2023-09-12T02:53:54;99863.31;;;23.19;57.88
19286;BME280;9776;50.798;6.430;2023-09-12T02:56:21;99873.09;;;23.08;58.12
19286;BME280;9776;50.798;6.430;2023-09-12T02:58:48;99868.19;;;23.05;58.39
19286;BME280;9776;50.798;6.430;2023-09-12T03:01:15;99874.06;;;23.02;58.28
19286;BME280;9776;50.798;6.430;2023-09-12T03:03:43;99870.69;;;22.95;58.56
19286;BME280;9776;50.798;6.430;2023-09-12T03:06:12;99869.03;;;22.94;58.57
19286;BME280;9776;50.798;6.430;2023-09-12T03:08:39;99867.06;;;22.90;58.87
19286;BME280;9776;50.798;6.430;2023-09-12T03:11:08;99868.94;;;22.89;58.95
19286;BME280;9776;50.798;6.430;2023-09-12T03:13:35;99859.81;;;22.90;58.78
19286;BME280;9776;50.798;6.430;2023-09-12T03:16:03;99858.88;;;22.96;58.64
19286;BME280;9776;50.798;6.430;2023-09-12T03:18:30;99861.31;;;22.98;58.94
19286;BME280;9776;50.798;6.430;2023-09-12T03:20:57;99860.66;;;22.91;58.89
19286;BME280;9776;50.798;6.430;2023-09-12T03:23:24;99856.09;;;22.91;58.98
19286;BME280;9776;50.798;6.430;2023-09-12T03:25:51;99850.19;;;22.94;58.82
19286;BME280;9776;50.798;6.430;2023-09-12T03:28:19;99849.00;;;23.02;58.79
19286;BME280;9776;50.798;6.430;2023-09-12T03:33:31;99850.97;;;23.06;58.62
19286;BME280;9776;50.798;6.430;2023-09-12T03:35:58;99852.34;;;23.09;58.59
19286;BME280;9776;50.798;6.430;2023-09-12T03:38:25;99846.25;;;23.13;58.50
19286;BME280;9776;50.798;6.430;2023-09-12T03:40:51;99844.88;;;23.11;58.57
19286;BME280;9776;50.798;6.430;2023-09-12T03:45:54;99849.41;;;22.94;59.04
19286;BME280;9776;50.798;6.430;2023-09-12T03:48:21;99853.19;;;22.81;59.37
19286;BME280;9776;50.798;6.430;2023-09-12T03:50:48;99853.09;;;22.76;59.65
19286;BME280;9776;50.798;6.430;2023-09-12T03:53:15;99853.25;;;22.70;59.78
19286;BME280;9776;50.798;6.430;2023-09-12T03:55:42;99829.13;;;22.63;59.99
19286;BME280;9776;50.798;6.430;2023-09-12T03:58:09;99806.13;;;22.67;59.96
19286;BME280;9776;50.798;6.430;2023-09-12T04:00:36;99803.50;;;22.72;60.11
19286;BME280;9776;50.798;6.430;2023-09-12T04:03:04;99825.84;;;22.73;60.22
19286;BME280;9776;50.798;6.430;2023-09-12T04:05:31;99824.03;;;22.50;61.12
19286;BME280;9776;50.798;6.430;2023-09-12T04:07:58;99822.69;;;22.36;61.62
19286;BME280;9776;50.798;6.430;2023-09-12T04:10:24;99813.97;;;22.45;61.73
19286;BME280;9776;50.798;6.430;2023-09-12T04:12:51;99803.44;;;22.55;61.65
19286;BME280;9776;50.798;6.430;2023-09-12T04:15:18;99789.25;;;22.60;61.60
19286;BME280;9776;50.798;6.430;2023-09-12T04:17:45;99789.59;;;22.63;61.88
19286;BME280;9776;50.798;6.430;2023-09-12T04:20:13;99789.91;;;22.50;62.30
19286;BME280;9776;50.798;6.430;2023-09-12T04:22:43;99796.19;;;22.28;62.92
19286;BME280;9776;50.798;6.430;2023-09-12T04:25:09;99809.88;;;22.03;63.51
19286;BME280;9776;50.798;6.430;2023-09-12T04:27:37;99816.56;;;21.89;64.13
19286;BME280;9776;50.798;6.430;2023-09-12T04:30:04;99824.72;;;21.82;64.47
19286;BME280;9776;50.798;6.430;2023-09-12T04:32:31;99826.81;;;21.80;64.56
19286;BME280;9776;50.798;6.430;2023-09-12T04:34:58;99822.38;;;21.86;64.53
19286;BME280;9776;50.798;6.430;2023-09-12T04:37:26;99822.19;;;21.99;64.34
19286;BME280;9776;50.798;6.430;2023-09-12T04:39:53;99828.69;;;22.03;64.50
19286;BME280;9776;50.798;6.430;2023-09-12T04:42:19;99845.88;;;22.02;64.74
19286;BME280;9776;50.798;6.430;2023-09-12T04:44:46;99851.25;;;22.02;65.17
19286;BME280;9776;50.798;6.430;2023-09-12T04:47:13;99857.44;;;22.02;65.39
19286;BME280;9776;50.798;6.430;2023-09-12T04:49:40;99869.59;;;22.05;65.62
19286;BME280;9776;50.798;6.430;2023-09-12T04:52:07;99886.41;;;22.12;65.72
19286;BME280;9776;50.798;6.430;2023-09-12T04:54:35;99896.13;;;22.25;65.54
19286;BME280;9776;50.798;6.430;2023-09-12T04:57:02;99906.50;;;22.33;65.43
19286;BME280;9776;50.798;6.430;2023-09-12T04:59:29;99911.53;;;22.29;65.69
19286;BME280;9776;50.798;6.430;2023-09-12T05:01:56;99903.38;;;22.24;65.80
19286;BME280;9776;50.798;6.430;2023-09-12T05:04:22;99876.47;;;22.24;65.92
19286;BME280;9776;50.798;6.430;2023-09-12T05:06:49;99868.16;;;22.37;65.70
19286;BME280;9776;50.798;6.430;2023-09-12T05:09:16;99871.41;;;22.51;65.44
19286;BME280;9776;50.798;6.430;2023-09-12T05:11:44;99865.22;;;22.50;65.66
19286;BME280;9776;50.798;6.430;2023-09-12T05:14:11;99877.34;;;22.53;65.52
19286;BME280;9776;50.798;6.430;2023-09-12T05:16:38;99895.84;;;22.49;65.70
19286;BME280;9776;50.798;6.430;2023-09-12T05:19:04;99875.50;;;22.53;65.89
19286;BME280;9776;50.798;6.430;2023-09-12T05:21:32;99852.66;;;22.68;65.53
19286;BME280;9776;50.798;6.430;2023-09-12T05:23:59;99842.00;;;22.73;65.58
19286;BME280;9776;50.798;6.430;2023-09-12T05:26:28;99844.47;;;22.63;65.71
19286;BME280;9776;50.798;6.430;2023-09-12T05:28:59;99867.16;;;22.55;66.26
19286;BME280;9776;50.798;6.430;2023-09-12T05:31:31;99878.06;;;22.48;66.48
19286;BME280;9776;50.798;6.430;2023-09-12T05:33:57;99866.16;;;22.44;66.55
19286;BME280;9776;50.798;6.430;2023-09-12T05:36:24;99869.78;;;22.38;66.94
19286;BME280;9776;50.798;6.430;2023-09-12T05:38:51;99874.47;;;22.31;66.93
19286;BME280;9776;50.798;6.430;2023-09-12T05:41:18;99866.88;;;22.28;67.41
19286;BME280;9776;50.798;6.430;2023-09-12T05:43:44;99874.81;;;22.35;67.04
19286;BME280;9776;50.798;6.430;2023-09-12T05:46:12;99885.00;;;22.33;67.33
19286;BME280;9776;50.798;6.430;2023-09-12T05:48:39;99902.06;;;22.27;67.83
19286;BME280;9776;50.798;6.430;2023-09-12T05:51:08;99904.97;;;22.25;67.74
19286;BME280;9776;50.798;6.430;2023-09-12T05:53:35;99911.44;;;22.24;67.98
19286;BME280;9776;50.798;6.430;2023-09-12T05:56:02;99909.31;;;22.26;67.91
19286;BME280;9776;50.798;6.430;2023-09-12T05:58:28;99907.81;;;22.30;67.95
19286;BME280;9776;50.798;6.430;2023-09-12T06:00:55;99899.03;;;22.35;68.05
19286;BME280;9776;50.798;6.430;2023-09-12T06:03:23;99891.88;;;22.40;67.80
19286;BME280;9776;50.798;6.430;2023-09-12T06:05:50;99895.38;;;22.52;67.81
19286;BME280;9776;50.798;6.430;2023-09-12T06:08:16;99888.13;;;22.65;67.63
19286;BME280;9776;50.798;6.430;2023-09-12T06:10:44;99891.22;;;22.85;67.17
19286;BME280;9776;50.798;6.430;2023-09-12T06:13:11;99895.59;;;23.02;66.81
19286;BME280;9776;50.798;6.430;2023-09-12T06:15:37;99889.06;;;23.15;66.35
19286;BME280;9776;50.798;6.430;2023-09-12T06:18:06;99889.97;;;23.21;66.22
19286;BME280;9776;50.798;6.430;2023-09-12T06:20:34;99892.09;;;23.18;66.34
19286;BME280;9776;50.798;6.430;2023-09-12T06:23:01;99896.44;;;23.20;66.27
19286;BME280;9776;50.798;6.430;2023-09-12T06:25:28;99883.69;;;23.15;66.50
19286;BME280;9776;50.798;6.430;2023-09-12T06:27:55;99878.47;;;23.08;66.72
19286;BME280;9776;50.798;6.430;2023-09-12T06:30:22;99885.72;;;23.08;66.74
19286;BME280;9776;50.798;6.430;2023-09-12T06:32:49;99879.31;;;23.26;66.36
19286;BME280;9776;50.798;6.430;2023-09-12T06:35:15;99872.09;;;23.43;65.93
19286;BME280;9776;50.798;6.430;2023-09-12T06:37:43;99870.78;;;23.62;65.35
19286;BME280;9776;50.798;6.430;2023-09-12T06:40:12;99873.81;;;23.65;65.22
19286;BME280;9776;50.798;6.430;2023-09-12T06:42:39;99869.91;;;23.56;65.43
19286;BME280;9776;50.798;6.430;2023-09-12T06:45:06;99861.25;;;23.71;65.12
19286;BME280;9776;50.798;6.430;2023-09-12T06:47:33;99867.75;;;23.92;64.61
19286;BME280;9776;50.798;6.430;2023-09-12T06:50:01;99866.16;;;24.29;63.80
19286;BME280;9776;50.798;6.430;2023-09-12T06:52:28;99867.59;;;24.58;62.80
19286;BME280;9776;50.798;6.430;2023-09-12T06:54:56;99870.31;;;24.58;62.60
19286;BME280;9776;50.798;6.430;2023-09-12T06:57:23;99863.91;;;24.64;62.71
19286;BME280;9776;50.798;6.430;2023-09-12T06:59:49;99861.16;;;24.81;62.32
19286;BME280;9776;50.798;6.430;2023-09-12T07:02:16;99860.38;;;25.12;61.40
19286;BME280;9776;50.798;6.430;2023-09-12T07:04:43;99849.81;;;25.37;60.67
19286;BME280;9776;50.798;6.430;2023-09-12T07:07:10;99852.94;;;25.51;60.36
19286;BME280;9776;50.798;6.430;2023-09-12T07:09:37;99850.13;;;25.73;59.69
19286;BME280;9776;50.798;6.430;2023-09-12T07:12:05;99852.13;;;25.87;59.09
19286;BME280;9776;50.798;6.430;2023-09-12T07:14:33;99843.81;;;26.04;58.60
19286;BME280;9776;50.798;6.430;2023-09-12T07:16:59;99853.72;;;26.25;57.72
19286;BME280;9776;50.798;6.430;2023-09-12T07:19:26;99849.78;;;26.58;57.02
19286;BME280;9776;50.798;6.430;2023-09-12T07:21:52;99856.44;;;26.97;56.44
19286;BME280;9776;50.798;6.430;2023-09-12T07:24:19;99853.50;;;27.34;55.32
19286;BME280;9776;50.798;6.430;2023-09-12T07:26:46;99858.66;;;27.76;53.91
19286;BME280;9776;50.798;6.430;2023-09-12T07:29:14;99858.06;;;28.14;53.09
19286;BME280;9776;50.798;6.430;2023-09-12T07:31:41;99862.03;;;28.47;52.22
19286;BME280;9776;50.798;6.430;2023-09-12T07:34:10;99868.09;;;28.88;50.92
19286;BME280;9776;50.798;6.430;2023-09-12T07:36:40;99878.19;;;29.32;50.17
19286;BME280;9776;50.798;6.430;2023-09-12T07:39:06;99882.13;;;29.49;49.17
19286;BME280;9776;50.798;6.430;2023-09-12T07:41:39;99878.41;;;29.69;48.71
19286;BME280;9776;50.798;6.430;2023-09-12T07:44:06;99871.75;;;29.85;48.18
19286;BME280;9776;50.798;6.430;2023-09-12T07:46:39;99879.03;;;30.18;47.16
19286;BME280;9776;50.798;6.430;2023-09-12T07:49:06;99859.94;;;30.47;46.64
19286;BME280;9776;50.798;6.430;2023-09-12T07:51:34;99870.28;;;30.69;46.08
19286;BME280;9776;50.798;6.430;2023-09-12T07:54:01;99867.22;;;30.94;45.49
19286;BME280;9776;50.798;6.430;2023-09-12T07:56:33;99877.38;;;31.44;44.12
19286;BME280;9776;50.798;6.430;2023-09-12T07:59:00;99876.28;;;31.78;43.47
19286;BME280;9776;50.798;6.430;2023-09-12T08:01:26;99881.78;;;31.59;43.71
19286;BME280;9776;50.798;6.430;2023-09-12T08:03:55;99878.72;;;31.93;43.10
19286;BME280;9776;50.798;6.430;2023-09-12T08:06:22;99885.47;;;32.28;41.95
19286;BME280;9776;50.798;6.430;2023-09-12T08:08:50;99880.22;;;32.45;41.57
19286;BME280;9776;50.798;6.430;2023-09-12T08:11:17;99882.56;;;32.65;41.46
19286;BME280;9776;50.798;6.430;2023-09-12T08:13:48;99886.16;;;32.47;41.65
19286;BME280;9776;50.798;6.430;2023-09-12T08:16:15;99894.88;;;32.08;42.70
19286;BME280;9776;50.798;6.430;2023-09-12T08:18:41;99898.09;;;31.78;43.45
19286;BME280;9776;50.798;6.430;2023-09-12T08:21:10;99903.16;;;31.71;43.80
19286;BME280;9776;50.798;6.430;2023-09-12T08:23:37;99903.25;;;31.66;43.60
19286;BME280;9776;50.798;6.430;2023-09-12T08:26:03;99912.56;;;31.78;43.52
19286;BME280;9776;50.798;6.430;2023-09-12T08:28:32;99905.03;;;31.89;43.11
19286;BME280;9776;50.798;6.430;2023-09-12T08:30:59;99913.50;;;32.20;42.40
19286;BME280;9776;50.798;6.430;2023-09-12T08:33:26;99918.75;;;32.30;41.99
19286;BME280;9776;50.798;6.430;2023-09-12T08:35:53;99924.03;;;32.67;41.40
19286;BME280;9776;50.798;6.430;2023-09-12T08:38:21;99936.88;;;33.21;40.19
19286;BME280;9776;50.798;6.430;2023-09-12T08:40:48;99939.59;;;33.21;40.31
19286;BME280;9776;50.798;6.430;2023-09-12T08:43:15;99944.94;;;33.26;40.26
19286;BME280;9776;50.798;6.430;2023-09-12T08:45:42;99943.84;;;33.85;39.02
19286;BME280;9776;50.798;6.430;2023-09-12T08:48:10;99934.81;;;33.27;39.38
19286;BME280;9776;50.798;6.430;2023-09-12T08:50:37;99933.47;;;32.75;40.40
19286;BME280;9776;50.798;6.430;2023-09-12T08:53:05;99931.16;;;33.31;39.23
19286;BME280;9776;50.798;6.430;2023-09-12T08:55:36;99937.16;;;34.61;37.12
19286;BME280;9776;50.798;6.430;2023-09-12T08:58:03;99940.97;;;36.11;34.72
19286;BME280;9776;50.798;6.430;2023-09-12T09:00:31;99941.75;;;36.20;34.25
19286;BME280;9776;50.798;6.430;2023-09-12T09:02:58;99938.56;;;35.93;34.62
19286;BME280;9776;50.798;6.430;2023-09-12T09:05:26;99935.06;;;35.32;35.80
19286;BME280;9776;50.798;6.430;2023-09-12T09:07:54;99938.47;;;35.63;35.60
19286;BME280;9776;50.798;6.430;2023-09-12T09:10:23;99936.00;;;35.36;36.05
19286;BME280;9776;50.798;6.430;2023-09-12T09:12:51;99933.91;;;33.98;38.12
19286;BME280;9776;50.798;6.430;2023-09-12T09:15:22;99940.94;;;34.12;37.91
19286;BME280;9776;50.798;6.430;2023-09-12T09:17:49;99939.72;;;35.23;35.88
19286;BME280;9776;50.798;6.430;2023-09-12T09:20:27;99937.94;;;35.96;34.73
19286;BME280;9776;50.798;6.430;2023-09-12T09:22:59;99932.34;;;35.58;35.22
19286;BME280;9776;50.798;6.430;2023-09-12T09:25:25;99935.53;;;36.78;33.69
19286;BME280;9776;50.798;6.430;2023-09-12T09:27:58;99945.09;;;38.29;31.12
19286;BME280;9776;50.798;6.430;2023-09-12T09:30:39;99923.88;;;38.42;30.79
19286;BME280;9776;50.798;6.430;2023-09-12T09:33:07;99926.97;;;39.41;29.39
19286;BME280;9776;50.798;6.430;2023-09-12T09:35:35;99927.72;;;40.40;28.19
19286;BME280;9776;50.798;6.430;2023-09-12T09:38:03;99934.94;;;41.11;27.49
19286;BME280;9776;50.798;6.430;2023-09-12T09:40:30;99932.63;;;40.78;27.80
19286;BME280;9776;50.798;6.430;2023-09-12T09:43:00;99921.38;;;40.40;27.92
19286;BME280;9776;50.798;6.430;2023-09-12T09:45:28;99912.31;;;40.55;27.87
19286;BME280;9776;50.798;6.430;2023-09-12T09:47:57;99920.16;;;40.53;27.55
19286;BME280;9776;50.798;6.430;2023-09-12T09:50:27;99925.66;;;40.68;27.43
19286;BME280;9776;50.798;6.430;2023-09-12T09:52:55;99917.75;;;41.02;27.23
19286;BME280;9776;50.798;6.430;2023-09-12T09:55:28;99923.03;;;40.91;27.08
19286;BME280;9776;50.798;6.430;2023-09-12T09:57:54;99920.28;;;39.54;28.54
19286;BME280;9776;50.798;6.430;2023-09-12T10:00:23;99934.25;;;38.00;30.34
19286;BME280;9776;50.798;6.430;2023-09-12T10:02:51;99934.03;;;37.10;31.72
19286;BME280;9776;50.798;6.430;2023-09-12T10:05:19;99922.91;;;36.39;32.53
19286;BME280;9776;50.798;6.430;2023-09-12T10:07:48;99913.63;;;36.61;32.34
19286;BME280;9776;50.798;6.430;2023-09-12T10:10:18;99911.97;;;37.60;30.61
19286;BME280;9776;50.798;6.430;2023-09-12T10:12:50;99905.47;;;38.82;28.75
19286;BME280;9776;50.798;6.430;2023-09-12T10:15:23;99908.03;;;39.55;27.92
19286;BME280;9776;50.798;6.430;2023-09-12T10:17:56;99905.88;;;40.66;26.74
19286;BME280;9776;50.798;6.430;2023-09-12T10:20:28;99906.78;;;40.90;26.38
19286;BME280;9776;50.798;6.430;2023-09-12T10:23:05;99912.41;;;40.93;26.48
19286;BME280;9776;50.798;6.430;2023-09-12T10:25:36;99906.75;;;40.39;27.08
19286;BME280;9776;50.798;6.430;2023-09-12T10:28:04;99905.75;;;39.17;28.30
19286;BME280;9776;50.798;6.430;2023-09-12T10:30:34;99907.31;;;38.42;29.49
19286;BME280;9776;50.798;6.430;2023-09-12T10:33:02;99901.34;;;39.28;28.53
19286;BME280;9776;50.798;6.430;2023-09-12T10:35:30;99903.56;;;40.37;26.95
19286;BME280;9776;50.798;6.430;2023-09-12T10:37:59;99907.22;;;40.57;26.95
19286;BME280;9776;50.798;6.430;2023-09-12T10:40:27;99902.84;;;40.56;27.11
19286;BME280;9776;50.798;6.430;2023-09-12T10:42:55;99909.63;;;40.11;27.49
19286;BME280;9776;50.798;6.430;2023-09-12T10:45:22;99902.06;;;39.53;27.99
19286;BME280;9776;50.798;6.430;2023-09-12T10:47:51;99918.19;;;40.22;27.26
19286;BME280;9776;50.798;6.430;2023-09-12T10:50:19;99904.63;;;41.56;25.83
19286;BME280;9776;50.798;6.430;2023-09-12T10:52:46;99910.09;;;42.89;24.29
19286;BME280;9776;50.798;6.430;2023-09-12T10:55:16;99901.19;;;43.66;23.08
19286;BME280;9776;50.798;6.430;2023-09-12T10:58:01;99893.66;;;42.24;24.63
19286;BME280;9776;50.798;6.430;2023-09-12T11:00:29;99894.50;;;41.64;25.64
19286;BME280;9776;50.798;6.430;2023-09-12T11:02:59;99903.22;;;42.27;24.80
19286;BME280;9776;50.798;6.430;2023-09-12T11:05:37;99910.72;;;42.75;24.08
19286;BME280;9776;50.798;6.430;2023-09-12T11:08:06;99903.38;;;41.92;25.27
19286;BME280;9776;50.798;6.430;2023-09-12T11:10:33;99907.84;;;40.19;27.34
19286;BME280;9776;50.798;6.430;2023-09-12T11:12:59;99912.25;;;38.97;28.89
19286;BME280;9776;50.798;6.430;2023-09-12T11:15:27;99914.38;;;37.94;29.79
19286;BME280;9776;50.798;6.430;2023-09-12T11:18:02;99917.22;;;36.82;31.53
19286;BME280;9776;50.798;6.430;2023-09-12T11:20:51;99915.50;;;35.68;33.01
19286;BME280;9776;50.798;6.430;2023-09-12T11:23:18;99915.34;;;35.39;33.59
19286;BME280;9776;50.798;6.430;2023-09-12T11:25:45;99911.31;;;35.19;33.84
19286;BME280;9776;50.798;6.430;2023-09-12T11:28:18;99913.00;;;36.01;32.68
19286;BME280;9776;50.798;6.430;2023-09-12T11:30:56;99905.44;;;37.44;30.59
19286;BME280;9776;50.798;6.430;2023-09-12T11:33:28;99903.59;;;39.10;28.60
19286;BME280;9776;50.798;6.430;2023-09-12T11:35:58;99899.88;;;40.49;27.02
19286;BME280;9776;50.798;6.430;2023-09-12T11:38:30;99902.06;;;41.86;25.51
19286;BME280;9776;50.798;6.430;2023-09-12T11:40:58;99895.31;;;41.26;26.24
19286;BME280;9776;50.798;6.430;2023-09-12T11:43:26;99903.16;;;39.64;28.23
19286;BME280;9776;50.798;6.430;2023-09-12T11:45:55;99906.34;;;39.78;28.07
19286;BME280;9776;50.798;6.430;2023-09-12T11:48:22;99898.91;;;40.26;27.19
19286;BME280;9776;50.798;6.430;2023-09-12T11:50:52;99894.59;;;41.29;26.02
19286;BME280;9776;50.798;6.430;2023-09-12T11:53:20;99888.47;;;41.39;25.80
19286;BME280;9776;50.798;6.430;2023-09-12T11:55:53;99886.66;;;42.11;25.00
19286;BME280;9776;50.798;6.430;2023-09-12T11:58:21;99888.81;;;43.26;23.69
19286;BME280;9776;50.798;6.430;2023-09-12T12:00:49;99888.91;;;43.67;23.71
19286;BME280;9776;50.798;6.430;2023-09-12T12:03:17;99888.56;;;43.38;23.49
19286;BME280;9776;50.798;6.430;2023-09-12T12:05:45;99896.72;;;41.55;25.79
19286;BME280;9776;50.798;6.430;2023-09-12T12:08:18;99895.25;;;40.21;27.15
19286;BME280;9776;50.798;6.430;2023-09-12T12:10:49;99881.59;;;39.26;28.20
19286;BME280;9776;50.798;6.430;2023-09-12T12:13:17;99891.22;;;38.56;28.48
19286;BME280;9776;50.798;6.430;2023-09-12T12:15:44;99886.84;;;38.19;29.23
19286;BME280;9776;50.798;6.430;2023-09-12T12:18:36;99886.94;;;37.65;29.75
19286;BME280;9776;50.798;6.430;2023-09-12T12:21:02;99883.78;;;37.01;31.08
19286;BME280;9776;50.798;6.430;2023-09-12T12:23:31;99873.34;;;36.27;31.97
19286;BME280;9776;50.798;6.430;2023-09-12T12:26:02;99883.53;;;35.63;32.71
19286;BME280;9776;50.798;6.430;2023-09-12T12:28:30;99881.63;;;35.29;33.27
19286;BME280;9776;50.798;6.430;2023-09-12T12:30:59;99888.56;;;35.61;32.57
19286;BME280;9776;50.798;6.430;2023-09-12T12:33:26;99884.50;;;36.22;31.74
19286;BME280;9776;50.798;6.430;2023-09-12T12:35:59;99888.00;;;36.99;30.51
19286;BME280;9776;50.798;6.430;2023-09-12T12:38:26;99880.47;;;37.49;30.15
19286;BME280;9776;50.798;6.430;2023-09-12T12:40:58;99874.00;;;37.66;29.47
19286;BME280;9776;50.798;6.430;2023-09-12T12:43:24;99866.13;;;37.23;30.09
19286;BME280;9776;50.798;6.430;2023-09-12T12:45:53;99866.28;;;37.06;30.67
19286;BME280;9776;50.798;6.430;2023-09-12T12:48:29;99867.41;;;36.75;30.76
19286;BME280;9776;50.798;6.430;2023-09-12T12:50:55;99862.38;;;36.57;30.79
19286;BME280;9776;50.798;6.430;2023-09-12T12:53:37;99866.00;;;36.99;30.46
19286;BME280;9776;50.798;6.430;2023-09-12T12:56:05;99866.97;;;37.15;29.89
19286;BME280;9776;50.798;6.430;2023-09-12T12:58:33;99854.56;;;36.88;30.49
19286;BME280;9776;50.798;6.430;2023-09-12T13:01:00;99854.69;;;36.41;30.74
19286;BME280;9776;50.798;6.430;2023-09-12T13:03:27;99856.44;;;36.00;31.42
19286;BME280;9776;50.798;6.430;2023-09-12T13:05:54;99857.53;;;35.69;31.77
19286;BME280;9776;50.798;6.430;2023-09-12T13:08:21;99847.22;;;35.41;32.42
19286;BME280;9776;50.798;6.430;2023-09-12T13:10:48;99849.78;;;35.54;32.08
19286;BME280;9776;50.798;6.430;2023-09-12T13:13:16;99846.25;;;35.45;32.43
19286;BME280;9776;50.798;6.430;2023-09-12T13:15:49;99840.31;;;35.26;32.63
19286;BME280;9776;50.798;6.430;2023-09-12T13:18:16;99836.09;;;35.20;32.91
19286;BME280;9776;50.798;6.430;2023-09-12T13:20:43;99831.25;;;35.00;33.12
19286;BME280;9776;50.798;6.430;2023-09-12T13:23:10;99825.19;;;34.46;33.90